createdAt,value
2017-05-13T00:00:45.542Z,15.92
2017-05-13T00:03:14.100Z,15.48
2017-05-13T00:05:42.649Z,15.77
2017-05-13T00:08:11.249Z,14.17
2017-05-13T00:10:39.792Z,14.75
2017-05-13T00:13:08.348Z,16.90
2017-05-13T00:15:36.948Z,14.85
2017-05-13T00:18:05.495Z,15.12
2017-05-13T00:20:34.037Z,16.67
2017-05-13T00:23:02.642Z,15.60
2017-05-13T00:25:31.192Z,16.22
2017-05-13T00:27:59.733Z,13.72
2017-05-13T00:30:28.341Z,16.12
2017-05-13T00:32:56.891Z,16.52
2017-05-13T00:35:25.470Z,17.72
2017-05-13T00:37:54.071Z,15.62
2017-05-13T00:40:22.615Z,16.57
2017-05-13T00:42:51.171Z,16.40
2017-05-13T00:45:19.786Z,18.45
2017-05-13T00:47:48.353Z,18.72
2017-05-13T00:50:16.901Z,15.42
2017-05-13T00:52:45.510Z,15.18
2017-05-13T00:55:14.051Z,18.73
2017-05-13T00:57:42.594Z,16.53
2017-05-13T01:00:11.193Z,17.33
2017-05-13T01:02:39.745Z,15.93
2017-05-13T01:05:08.296Z,17.00
2017-05-13T01:07:36.896Z,16.93
2017-05-13T01:10:05.448Z,15.10
2017-05-13T01:12:34.022Z,16.58
2017-05-13T01:15:02.621Z,18.72
2017-05-13T01:17:31.178Z,16.30
2017-05-13T01:19:59.756Z,18.60
2017-05-13T01:22:28.370Z,16.38
2017-05-13T01:24:56.933Z,16.40
2017-05-13T01:27:25.480Z,15.70
2017-05-13T01:29:54.109Z,15.63
2017-05-13T01:32:22.736Z,16.97
2017-05-13T01:34:51.308Z,17.70
2017-05-13T01:37:19.908Z,16.72
2017-05-13T01:39:48.461Z,15.88
2017-05-13T01:42:17.016Z,16.90
2017-05-13T01:44:45.685Z,18.33
2017-05-13T01:47:14.258Z,15.03
2017-05-13T01:49:42.859Z,16.63
2017-05-13T01:52:11.473Z,16.33
2017-05-13T01:54:40.020Z,15.12
2017-05-13T01:57:08.573Z,16.17
2017-05-13T01:59:37.168Z,17.30
2017-05-13T02:02:05.720Z,16.40
2017-05-13T02:04:34.268Z,17.72
2017-05-13T02:07:02.896Z,16.35
2017-05-13T02:09:31.439Z,17.75
2017-05-13T02:12:00.000Z,18.17
2017-05-13T02:14:28.602Z,16.87
2017-05-13T02:16:57.150Z,20.47
2017-05-13T02:19:25.712Z,16.05
2017-05-13T02:21:54.485Z,17.03
2017-05-13T02:24:23.046Z,17.37
2017-05-13T02:26:51.597Z,15.82
2017-05-13T02:29:20.241Z,16.23
2017-05-13T02:31:48.803Z,17.75
2017-05-13T02:34:17.341Z,18.02
2017-05-13T02:36:45.947Z,17.42
2017-05-13T02:39:14.499Z,16.88
2017-05-13T02:41:43.061Z,16.27
2017-05-13T02:44:11.652Z,15.73
2017-05-13T02:46:40.201Z,21.65
2017-05-13T02:49:08.754Z,16.58
2017-05-13T02:51:37.345Z,16.10
2017-05-13T02:54:05.890Z,16.75
2017-05-13T02:56:34.433Z,21.75
2017-05-13T02:59:03.044Z,15.28
2017-05-13T03:01:31.610Z,16.63
2017-05-13T03:04:00.178Z,15.53
2017-05-13T03:06:28.776Z,16.82
2017-05-13T03:08:57.333Z,17.52
2017-05-13T03:11:27.461Z,17.55
2017-05-13T03:13:56.057Z,19.52
2017-05-13T03:16:24.630Z,16.97
2017-05-13T03:18:53.160Z,17.43
2017-05-13T03:21:21.732Z,17.83
2017-05-13T03:23:50.293Z,18.53
2017-05-13T03:26:18.890Z,16.05
2017-05-13T03:28:47.450Z,17.03
2017-05-13T03:31:15.978Z,19.40
2017-05-13T03:33:44.499Z,17.50
2017-05-13T03:36:13.064Z,18.13
2017-05-13T03:38:41.595Z,20.27
2017-05-13T03:41:10.110Z,18.30
2017-05-13T03:43:38.676Z,18.92
2017-05-13T03:46:07.198Z,18.03
2017-05-13T03:48:35.722Z,19.07
2017-05-13T03:51:04.291Z,19.97
2017-05-13T03:53:32.831Z,20.57
2017-05-13T03:56:01.354Z,18.35
2017-05-13T03:58:29.911Z,17.55
2017-05-13T04:00:58.424Z,19.38
2017-05-13T04:03:26.933Z,22.50
2017-05-13T04:05:55.506Z,18.78
2017-05-13T04:08:24.020Z,20.18
2017-05-13T04:10:52.540Z,18.85
2017-05-13T04:13:21.111Z,16.58
2017-05-13T04:15:49.643Z,18.77
2017-05-13T04:18:18.168Z,18.53
2017-05-13T04:20:46.750Z,18.38
2017-05-13T04:23:15.292Z,18.10
2017-05-13T04:25:43.820Z,18.65
2017-05-13T04:28:12.381Z,21.28
2017-05-13T04:30:40.901Z,18.37
2017-05-13T04:33:09.783Z,17.97
2017-05-13T04:35:38.382Z,18.48
2017-05-13T04:38:06.937Z,18.77
2017-05-13T04:40:35.456Z,19.32
2017-05-13T04:43:04.032Z,17.25
2017-05-13T04:45:32.574Z,19.07
2017-05-13T04:48:01.095Z,17.67
2017-05-13T04:50:29.661Z,17.53
2017-05-13T04:52:58.194Z,17.65
2017-05-13T04:55:26.713Z,17.42
2017-05-13T04:57:55.284Z,17.23
2017-05-13T05:00:23.814Z,18.10
2017-05-13T05:02:52.352Z,15.62
2017-05-13T05:05:20.917Z,16.62
2017-05-13T05:07:49.443Z,17.70
2017-05-13T05:10:17.962Z,16.78
2017-05-13T05:12:46.523Z,15.68
2017-05-13T05:15:16.003Z,15.33
2017-05-13T05:17:44.550Z,15.70
2017-05-13T05:20:13.139Z,19.27
2017-05-13T05:22:41.677Z,16.57
2017-05-13T05:25:10.193Z,12.20
2017-05-13T05:27:38.783Z,13.85
2017-05-13T05:30:07.300Z,12.85
2017-05-13T05:32:35.823Z,12.45
2017-05-13T05:35:04.400Z,12.83
2017-05-13T05:37:32.923Z,12.92
2017-05-13T05:40:01.453Z,14.20
2017-05-13T05:42:30.050Z,11.48
2017-05-13T05:44:58.903Z,11.70
2017-05-13T05:47:27.436Z,16.12
2017-05-13T05:49:56.064Z,11.78
2017-05-13T05:52:24.610Z,12.12
2017-05-13T05:54:53.129Z,10.72
2017-05-13T05:57:22.496Z,11.92
2017-05-13T05:59:51.012Z,10.33
2017-05-13T06:02:19.815Z,11.88
2017-05-13T06:04:48.383Z,10.27
2017-05-13T06:07:16.913Z,11.55
2017-05-13T06:09:45.435Z,10.63
2017-05-13T06:12:14.005Z,11.07
2017-05-13T06:14:42.532Z,12.90
2017-05-13T06:17:11.069Z,11.25
2017-05-13T06:19:39.630Z,9.02
2017-05-13T06:22:08.153Z,9.70
2017-05-13T06:24:36.677Z,9.55
2017-05-13T06:27:05.256Z,10.27
2017-05-13T06:29:34.512Z,10.03
2017-05-13T06:32:03.032Z,9.03
2017-05-13T06:34:31.634Z,7.78
2017-05-13T06:37:00.147Z,7.22
2017-05-13T06:39:28.663Z,8.20
2017-05-13T06:41:57.217Z,8.25
2017-05-13T06:44:25.738Z,8.33
2017-05-13T06:46:54.245Z,8.58
2017-05-13T06:49:22.799Z,8.65
2017-05-13T06:51:51.310Z,7.55
2017-05-13T06:54:19.832Z,7.55
2017-05-13T06:56:48.390Z,6.40
2017-05-13T06:59:16.903Z,9.35
2017-05-13T07:01:45.432Z,6.28
2017-05-13T07:04:14.036Z,7.57
2017-05-13T07:06:42.582Z,7.73
2017-05-13T07:09:11.119Z,7.55
2017-05-13T07:11:39.675Z,12.50
2017-05-13T07:14:08.179Z,10.00
2017-05-13T07:16:36.683Z,6.82
2017-05-13T07:19:05.231Z,6.77
2017-05-13T07:27:45.693Z,5.68
2017-05-13T07:30:16.601Z,5.40
2017-05-13T07:32:45.858Z,6.72
2017-05-13T07:35:16.087Z,5.02
2017-05-13T07:40:30.283Z,6.33
2017-05-13T07:43:07.432Z,5.97
2017-05-13T07:45:37.618Z,7.10
2017-05-13T10:42:44.033Z,8.50
2017-05-13T11:02:16.349Z,7.60
2017-05-13T11:08:17.369Z,7.28
2017-05-13T11:10:52.416Z,7.22
2017-05-13T11:13:32.303Z,6.60
2017-05-13T11:16:12.268Z,6.90
2017-05-13T11:19:00.978Z,7.75
2017-05-13T11:21:45.623Z,8.90
2017-05-13T11:24:25.753Z,8.80
2017-05-13T11:27:01.059Z,5.70
2017-05-13T11:29:31.379Z,6.95
2017-05-13T11:32:02.356Z,6.03
2017-05-13T11:34:34.543Z,5.20
2017-05-13T11:37:09.875Z,5.05
2017-05-13T11:39:46.019Z,6.08
2017-05-13T11:45:15.305Z,5.37
2017-05-13T11:53:57.819Z,4.73
2017-05-13T12:02:04.139Z,5.58
2017-05-13T12:07:30.282Z,6.73
2017-05-13T12:10:27.416Z,4.95
2017-05-13T12:13:02.476Z,4.50
2017-05-13T12:21:11.185Z,4.85
2017-05-13T12:26:24.248Z,5.10
2017-05-13T12:29:27.682Z,5.73
2017-05-13T12:37:58.370Z,8.73
2017-05-13T12:47:05.434Z,6.45
2017-05-13T12:49:47.330Z,6.03
2017-05-13T12:55:06.152Z,6.50
2017-05-13T12:57:44.476Z,5.73
2017-05-13T13:00:23.839Z,5.85
2017-05-13T13:03:05.863Z,5.47
2017-05-13T13:05:39.627Z,6.22
2017-05-13T13:08:23.990Z,5.53
2017-05-13T13:16:56.223Z,5.23
2017-05-13T13:19:34.279Z,6.10
2017-05-13T13:28:18.048Z,5.32
2017-05-13T13:30:49.952Z,5.77
2017-05-13T13:33:26.707Z,5.65
2017-05-13T13:41:53.919Z,5.95
2017-05-13T13:44:45.071Z,6.22
2017-05-13T13:47:23.192Z,6.15
2017-05-13T13:56:20.306Z,5.63
2017-05-13T14:04:14.871Z,6.68
2017-05-13T14:06:45.762Z,6.78
2017-05-13T14:09:17.921Z,6.02
2017-05-13T14:11:47.404Z,6.20
2017-05-13T14:14:19.677Z,7.00
2017-05-13T14:16:50.249Z,6.10
2017-05-13T14:19:22.200Z,6.57
2017-05-13T14:21:59.671Z,6.98
2017-05-13T14:24:30.410Z,6.23
2017-05-13T14:27:00.687Z,6.17
2017-05-13T14:29:29.231Z,6.72
2017-05-13T14:31:57.818Z,6.18
2017-05-13T14:34:34.498Z,6.18
2017-05-13T14:37:04.046Z,7.07
2017-05-13T14:39:36.457Z,5.57
2017-05-13T14:42:06.940Z,5.48
2017-05-13T14:44:39.339Z,5.17
2017-05-13T14:47:13.530Z,5.82
2017-05-13T14:49:45.039Z,5.58
2017-05-13T14:52:13.621Z,5.93
2017-05-13T14:54:43.475Z,6.12
2017-05-13T14:57:12.548Z,5.33
2017-05-13T14:59:41.141Z,5.42
2017-05-13T15:02:13.698Z,5.12
2017-05-13T15:04:44.035Z,5.90
2017-05-13T15:07:14.532Z,5.57
2017-05-13T15:09:46.508Z,6.67
2017-05-13T15:12:15.176Z,6.43
2017-05-13T15:14:49.647Z,5.08
2017-05-13T15:17:21.649Z,5.93
2017-05-13T15:19:57.741Z,5.73
2017-05-13T15:25:23.010Z,4.98
2017-05-13T15:27:56.065Z,6.35
2017-05-13T15:33:08.018Z,5.03
2017-05-13T15:35:38.143Z,6.28
2017-05-13T15:38:06.950Z,5.40
2017-05-13T15:40:49.763Z,5.33
2017-05-13T15:43:19.897Z,4.98
2017-05-13T15:45:48.471Z,5.87
2017-05-13T15:48:19.855Z,5.40
2017-05-13T15:50:51.467Z,5.18
2017-05-13T15:53:23.995Z,4.30
2017-05-13T15:55:56.921Z,5.65
2017-05-13T15:58:30.213Z,5.60
2017-05-13T16:01:08.141Z,6.05
2017-05-13T16:03:41.869Z,5.30
2017-05-13T16:06:14.241Z,5.67
2017-05-13T16:08:45.216Z,5.80
2017-05-13T16:11:17.140Z,5.37
2017-05-13T16:13:46.637Z,5.82
2017-05-13T16:16:16.951Z,6.02
2017-05-13T16:18:45.911Z,5.87
2017-05-13T16:21:15.321Z,5.88
2017-05-13T16:23:43.888Z,5.92
2017-05-13T16:26:12.494Z,5.33
2017-05-13T16:28:41.043Z,6.22
2017-05-13T16:31:09.565Z,6.47
2017-05-13T16:33:38.188Z,6.90
2017-05-13T16:36:06.735Z,7.72
2017-05-13T16:38:36.222Z,6.33
2017-05-13T16:41:06.152Z,5.77
2017-05-13T16:43:36.967Z,6.37
2017-05-13T16:46:05.979Z,5.85
2017-05-13T16:48:36.931Z,6.85
2017-05-13T16:51:05.701Z,6.40
2017-05-13T16:53:40.320Z,7.25
2017-05-13T16:56:10.271Z,5.95
2017-05-13T16:58:39.766Z,5.88
2017-05-13T17:01:08.303Z,5.37
2017-05-13T17:03:40.927Z,5.42
2017-05-13T17:06:09.609Z,6.27
2017-05-13T17:08:39.025Z,5.90
2017-05-13T17:11:07.608Z,5.52
2017-05-13T17:13:36.723Z,5.72
2017-05-13T17:16:05.331Z,6.15
2017-05-13T17:18:35.123Z,5.73
2017-05-13T17:21:03.996Z,5.70
2017-05-13T17:23:33.606Z,5.38
2017-05-13T17:26:02.146Z,5.87
2017-05-13T17:28:35.670Z,6.92
2017-05-13T17:31:04.361Z,6.60
2017-05-13T17:33:33.000Z,5.78
2017-05-13T17:36:01.593Z,6.35
2017-05-13T17:38:30.155Z,5.92
2017-05-13T17:40:58.686Z,5.05
2017-05-13T17:43:27.209Z,9.13
2017-05-13T17:45:55.960Z,6.48
2017-05-13T17:48:24.483Z,6.43
2017-05-13T17:50:53.020Z,6.00
2017-05-13T17:53:21.594Z,6.35
2017-05-13T17:55:50.122Z,6.03
2017-05-13T17:58:18.667Z,6.05
2017-05-13T18:00:47.210Z,6.50
2017-05-13T18:03:15.711Z,7.40
2017-05-13T18:05:44.229Z,7.05
2017-05-13T18:08:12.777Z,6.73
2017-05-13T18:10:41.302Z,6.92
2017-05-13T18:13:09.832Z,6.63
2017-05-13T18:15:38.400Z,6.73
2017-05-13T18:18:06.915Z,8.85
2017-05-13T18:20:35.451Z,8.92
2017-05-13T18:23:04.004Z,7.17
2017-05-13T18:25:32.597Z,7.28
2017-05-13T18:28:01.097Z,7.38
2017-05-13T18:30:29.650Z,7.97
2017-05-13T18:32:58.207Z,7.70
2017-05-13T18:35:26.731Z,8.38
2017-05-13T18:37:55.284Z,9.53
2017-05-13T18:40:23.805Z,9.02
2017-05-13T18:42:52.317Z,8.68
2017-05-13T18:45:20.869Z,10.07
2017-05-13T18:47:49.404Z,8.08
2017-05-13T18:50:17.939Z,11.78
2017-05-13T18:52:46.483Z,8.43
2017-05-13T18:55:14.997Z,10.23
2017-05-13T18:57:43.537Z,11.17
2017-05-13T19:00:12.115Z,10.00
2017-05-13T19:02:40.702Z,10.80
2017-05-13T19:05:09.447Z,10.97
2017-05-13T19:07:38.052Z,15.12
2017-05-13T19:10:06.600Z,11.00
2017-05-13T19:12:35.197Z,12.45
2017-05-13T19:15:03.785Z,12.78
2017-05-13T19:17:32.395Z,15.30
2017-05-13T19:20:00.942Z,12.82
2017-05-13T19:22:29.737Z,14.83
2017-05-13T19:24:58.278Z,12.90
2017-05-13T19:27:26.941Z,11.75
2017-05-13T19:29:55.576Z,13.77
2017-05-13T19:32:24.153Z,12.88
2017-05-13T19:34:56.191Z,14.88
2017-05-13T19:37:24.768Z,15.82
2017-05-13T19:39:53.782Z,14.63
2017-05-13T19:42:23.246Z,16.05
2017-05-13T19:44:52.932Z,16.88
2017-05-13T19:47:22.960Z,16.88
2017-05-13T19:49:51.752Z,17.28
2017-05-13T19:52:20.460Z,18.07
2017-05-13T19:54:49.192Z,17.55
2017-05-13T19:57:17.902Z,16.42
2017-05-13T19:59:47.441Z,20.78
2017-05-13T20:02:16.688Z,19.20
2017-05-13T20:04:46.653Z,17.67
2017-05-13T20:07:16.089Z,16.23
2017-05-13T20:09:46.114Z,21.43
2017-05-13T20:12:15.645Z,19.20
2017-05-13T20:14:45.113Z,18.00
2017-05-13T20:17:14.048Z,18.45
2017-05-13T20:19:45.025Z,18.15
2017-05-13T20:22:15.125Z,18.35
2017-05-13T20:24:44.541Z,18.57
2017-05-13T20:27:17.534Z,17.98
2017-05-13T20:29:47.480Z,22.60
2017-05-13T20:32:17.108Z,19.47
2017-05-13T20:34:48.010Z,20.78
2017-05-13T20:37:19.239Z,19.82
2017-05-13T20:39:48.537Z,19.73
2017-05-13T20:42:17.264Z,19.45
2017-05-13T20:44:48.581Z,21.13
2017-05-13T20:47:19.574Z,19.88
2017-05-13T20:49:50.808Z,20.22
2017-05-13T20:52:22.030Z,23.28
2017-05-13T20:54:51.473Z,20.28
2017-05-13T20:57:21.087Z,23.17
2017-05-13T20:59:49.729Z,20.05
2017-05-13T21:02:19.262Z,18.08
2017-05-13T21:04:49.698Z,19.63
2017-05-13T21:09:56.181Z,18.02
2017-05-13T21:12:27.316Z,18.20
2017-05-13T21:15:02.826Z,17.92
2017-05-13T21:17:38.227Z,23.55
2017-05-13T21:20:11.044Z,19.97
2017-05-13T21:25:17.426Z,20.23
2017-05-13T21:27:48.044Z,22.90
2017-05-13T21:30:18.790Z,21.12
2017-05-13T21:32:48.137Z,21.27
2017-05-13T21:35:17.174Z,19.67
2017-05-13T21:37:53.707Z,20.93
2017-05-13T21:40:25.550Z,22.90
2017-05-13T21:42:56.962Z,21.23
2017-05-13T21:45:27.792Z,27.12
2017-05-13T21:47:58.522Z,22.87
2017-05-13T21:50:27.514Z,22.92
2017-05-13T21:52:56.120Z,22.18
2017-05-13T21:55:25.698Z,22.52
2017-05-13T21:57:56.261Z,21.27
2017-05-13T22:00:26.654Z,23.90
2017-05-13T22:02:57.028Z,24.47
2017-05-13T22:05:26.661Z,22.72
2017-05-13T22:07:55.600Z,21.47
2017-05-13T22:10:25.901Z,31.57
2017-05-13T22:12:55.793Z,24.25
2017-05-13T22:15:24.582Z,29.53
2017-05-13T22:17:53.185Z,27.93
2017-05-13T22:20:21.916Z,26.68
2017-05-13T22:22:53.293Z,32.12
2017-05-13T22:25:23.019Z,24.68
2017-05-13T22:27:53.559Z,30.50
2017-05-13T22:30:23.895Z,26.33
2017-05-13T22:32:52.940Z,26.20
2017-05-13T22:35:22.469Z,25.72
2017-05-13T22:37:51.019Z,26.25
2017-05-13T22:40:19.550Z,29.98
2017-05-13T22:42:48.431Z,29.95
2017-05-13T22:45:17.028Z,28.87
2017-05-13T22:47:45.581Z,36.78
2017-05-13T22:50:14.185Z,38.93
2017-05-13T22:52:43.266Z,41.13
2017-05-13T22:55:11.869Z,30.63
2017-05-13T22:57:42.428Z,33.65
2017-05-13T23:00:10.975Z,30.63
2017-05-13T23:02:39.493Z,33.22
2017-05-13T23:05:08.042Z,34.43
2017-05-13T23:07:36.580Z,32.55
2017-05-13T23:10:05.152Z,37.65
2017-05-13T23:12:33.743Z,47.03
2017-05-13T23:15:02.318Z,34.83
2017-05-13T23:17:30.833Z,33.33
2017-05-13T23:19:59.393Z,38.35
2017-05-13T23:22:27.900Z,38.12
2017-05-13T23:24:56.420Z,35.67
2017-05-13T23:27:24.997Z,35.32
2017-05-13T23:29:53.516Z,36.10
2017-05-13T23:32:22.034Z,37.68
2017-05-13T23:34:50.588Z,35.05
2017-05-13T23:37:19.088Z,38.37
2017-05-13T23:39:47.603Z,35.32
2017-05-13T23:42:16.155Z,37.28
2017-05-13T23:44:44.671Z,36.48
2017-05-13T23:47:13.197Z,34.63
2017-05-13T23:49:41.754Z,35.47
2017-05-13T23:52:10.276Z,32.72
2017-05-13T23:54:38.789Z,37.62
2017-05-13T23:57:07.331Z,37.52
2017-05-13T23:59:35.840Z,38.95
